Time;durP1;ratioP1;P1;durP2;ratioP2;P2;SDS_P1;SDS_P2;PMS_P1;PMS_P2;Temp;Humidity;BMP_temperature;BMP_pressure;BME280_temperature;BME280_humidity;BME280_pressure;Samples;Min_cycle;Max_cycle;Signal;HPM_P1;HPM_P2
2024/01/09 00:01:58;;;;;;;22.00;10.23;;;-3.70;99.90;;;;;;5030689;28;20048;-64
2024/01/09 00:04:30;;;;;;;20.75;11.23;;;-3.70;99.90;;;;;;5029728;28;20049;-64
2024/01/09 00:06:57;;;;;;;20.20;10.98;;;-3.70;99.90;;;;;;5017196;28;20129;-65
2024/01/09 00:09:29;;;;;;;20.17;10.43;;;-3.70;99.90;;;;;;5028982;28;20059;-65
2024/01/09 00:12:01;;;;;;;25.15;12.00;;;-3.70;99.90;;;;;;5019971;28;20454;-65
2024/01/09 00:14:33;;;;;;;20.95;10.43;;;-3.70;99.90;;;;;;5041390;28;20037;-65
2024/01/09 00:16:59;;;;;;;20.38;11.25;;;-3.80;99.90;;;;;;5022079;28;20413;-65
2024/01/09 00:19:33;;;;;;;22.60;11.38;;;-3.80;99.90;;;;;;5025729;28;20502;-65
2024/01/09 00:22:02;;;;;;;24.20;11.73;;;-3.80;99.90;;;;;;5026106;28;20073;-65
2024/01/09 00:24:29;;;;;;;22.50;10.43;;;-3.80;99.90;;;;;;5020118;28;20088;-65
2024/01/09 00:27:01;;;;;;;19.92;11.15;;;-3.80;99.90;;;;;;5022866;28;20042;-65
2024/01/09 00:29:35;;;;;;;20.65;11.32;;;-3.80;99.90;;;;;;5016218;28;20034;-65
2024/01/09 00:32:06;;;;;;;18.08;10.00;;;-3.90;99.90;;;;;;5006556;28;20574;-65
2024/01/09 00:34:41;;;;;;;20.05;10.63;;;-3.90;99.90;;;;;;5019850;28;20038;-65
2024/01/09 00:37:13;;;;;;;19.77;9.98;;;-3.90;99.90;;;;;;5022288;28;20057;-65
2024/01/09 00:39:45;;;;;;;22.90;12.20;;;-3.90;99.90;;;;;;5022322;28;20468;-65
2024/01/09 00:42:17;;;;;;;22.40;11.30;;;-4.00;99.90;;;;;;5026480;28;20045;-65
2024/01/09 00:44:49;;;;;;;20.95;10.98;;;-4.00;99.90;;;;;;5028702;28;20037;-65
2024/01/09 00:47:16;;;;;;;20.52;11.70;;;-4.00;99.90;;;;;;5029619;28;20041;-65
2024/01/09 00:49:48;;;;;;;23.52;11.23;;;-4.00;99.90;;;;;;5024942;28;20045;-65
2024/01/09 00:52:19;;;;;;;19.50;10.50;;;-4.00;99.90;;;;;;5042038;28;20042;-65
2024/01/09 00:54:51;;;;;;;26.35;11.35;;;-4.10;99.90;;;;;;5038892;28;20503;-65
2024/01/09 00:57:23;;;;;;;30.05;11.32;;;-4.10;99.90;;;;;;5020041;28;20046;-65
2024/01/09 00:59:50;;;;;;;20.95;10.20;;;-4.10;99.90;;;;;;5020681;28;20040;-65
2024/01/09 01:02:22;;;;;;;19.80;10.07;;;-4.20;99.90;;;;;;5011356;28;20402;-64
2024/01/09 01:04:54;;;;;;;22.75;12.05;;;-4.20;99.90;;;;;;5022323;28;20049;-65
2024/01/09 01:07:27;;;;;;;19.15;10.30;;;-4.20;99.90;;;;;;5021680;28;20041;-65
2024/01/09 01:09:54;;;;;;;19.65;10.02;;;-4.30;99.90;;;;;;5023258;28;20578;-65
2024/01/09 01:12:26;;;;;;;22.13;11.00;;;-4.30;99.90;;;;;;5018552;28;20034;-65
2024/01/09 01:14:58;;;;;;;21.40;10.43;;;-4.30;99.90;;;;;;5022741;28;20048;-65
2024/01/09 01:17:25;;;;;;;21.95;11.57;;;-4.40;99.90;;;;;;5013786;28;20136;-65
2024/01/09 01:19:57;;;;;;;22.75;11.45;;;-4.40;99.90;;;;;;5014286;28;20518;-65
2024/01/09 01:22:29;;;;;;;21.00;11.75;;;-4.40;99.90;;;;;;5013149;28;20214;-65
2024/01/09 01:25:02;;;;;;;22.50;11.18;;;-4.40;99.90;;;;;;5015488;28;20038;-65
2024/01/09 01:27:33;;;;;;;20.60;11.13;;;-4.40;99.90;;;;;;5023807;28;20049;-65
2024/01/09 01:30:00;;;;;;;19.38;10.18;;;-4.50;99.90;;;;;;5026867;28;20037;-65
2024/01/09 01:32:32;;;;;;;27.48;11.20;;;-4.50;99.90;;;;;;5026741;28;20037;-65
2024/01/09 01:34:59;;;;;;;20.75;10.07;;;-4.50;99.90;;;;;;5023756;28;20129;-65
2024/01/09 01:37:31;;;;;;;20.70;11.32;;;-4.50;99.90;;;;;;5027910;28;20033;-65
2024/01/09 01:40:03;;;;;;;22.98;11.13;;;-4.60;99.90;;;;;;5020568;28;20073;-65
2024/01/09 01:42:35;;;;;;;22.40;11.35;;;-4.50;99.90;;;;;;5018328;28;20040;-65
2024/01/09 01:45:22;;;;;;;19.52;9.82;;;-4.60;99.90;;;;;;5030860;28;20405;-65
2024/01/09 01:47:55;;;;;;;19.15;9.95;;;-4.60;99.90;;;;;;5030786;28;20050;-65
2024/01/09 01:50:28;;;;;;;22.02;11.30;;;-4.70;99.90;;;;;;5020767;28;20045;-65
2024/01/09 01:53:02;;;;;;;20.48;10.38;;;-4.70;99.90;;;;;;5030126;28;20047;-65
2024/01/09 01:55:35;;;;;;;21.55;11.23;;;-4.70;99.90;;;;;;5027626;28;20049;-65
2024/01/09 01:58:03;;;;;;;42.92;13.88;;;-4.80;99.90;;;;;;5022558;28;20042;-65
2024/01/09 02:00:36;;;;;;;19.83;9.05;;;-4.80;99.90;;;;;;5039669;28;20041;-65
2024/01/09 02:03:08;;;;;;;20.27;10.95;;;-4.90;99.90;;;;;;5022631;28;20129;-65
2024/01/09 02:05:40;;;;;;;22.00;11.20;;;-4.90;99.90;;;;;;5029490;28;20125;-65
2024/01/09 02:08:15;;;;;;;22.15;11.73;;;-4.90;99.90;;;;;;5024998;28;20054;-65
2024/01/09 02:10:47;;;;;;;24.00;11.32;;;-5.00;99.90;;;;;;5016897;28;20037;-65
2024/01/09 02:13:13;;;;;;;24.48;11.45;;;-5.00;99.90;;;;;;5016806;28;20052;-65
2024/01/09 02:15:40;;;;;;;20.45;11.60;;;-5.00;99.90;;;;;;5017154;28;20054;-65
2024/01/09 02:18:12;;;;;;;21.42;11.35;;;-5.00;99.90;;;;;;5019110;28;20034;-65
2024/01/09 02:20:40;;;;;;;25.80;10.57;;;-5.00;99.90;;;;;;5022276;28;20068;-65
2024/01/09 02:23:12;;;;;;;21.73;11.75;;;-5.00;99.90;;;;;;5024169;28;20046;-65
2024/01/09 02:25:46;;;;;;;27.58;12.27;;;-5.00;99.90;;;;;;5024201;28;20030;-65
2024/01/09 02:28:24;;;;;;;29.55;14.38;;;-5.10;99.90;;;;;;5042167;28;20141;-65
2024/01/09 02:30:57;;;;;;;24.60;11.68;;;-5.10;99.90;;;;;;5024173;28;20048;-65
2024/01/09 02:33:29;;;;;;;21.90;11.00;;;-5.10;99.90;;;;;;5040819;28;20044;-65
2024/01/09 02:36:01;;;;;;;20.92;10.88;;;-5.10;99.90;;;;;;5018395;28;20092;-66
2024/01/09 02:38:33;;;;;;;23.15;11.05;;;-5.10;99.90;;;;;;5014428;28;20033;-65
2024/01/09 02:41:05;;;;;;;24.55;11.52;;;-5.00;99.90;;;;;;5013699;28;20044;-65
2024/01/09 02:43:32;;;;;;;19.45;10.43;;;-5.10;99.90;;;;;;5015633;28;20087;-65
2024/01/09 02:46:04;;;;;;;20.05;10.70;;;-5.00;99.90;;;;;;5020890;28;20495;-65
2024/01/09 02:48:31;;;;;;;20.08;10.75;;;-5.00;99.90;;;;;;5025676;28;20048;-67
2024/01/09 02:50:58;;;;;;;21.98;10.13;;;-5.10;99.90;;;;;;5037278;28;20450;-65
2024/01/09 02:53:24;;;;;;;24.48;10.82;;;-5.10;99.90;;;;;;5024679;28;20076;-65
2024/01/09 02:55:57;;;;;;;21.17;10.70;;;-5.10;99.90;;;;;;5022284;28;20116;-66
2024/01/09 02:58:29;;;;;;;19.13;11.07;;;-5.20;99.90;;;;;;5052616;28;20032;-65
2024/01/09 03:01:01;;;;;;;21.67;10.80;;;-5.10;99.90;;;;;;5035860;28;20055;-65
2024/01/09 03:03:33;;;;;;;24.40;11.95;;;-5.10;99.90;;;;;;5016483;28;20038;-65
2024/01/09 03:06:05;;;;;;;26.27;10.85;;;-5.10;99.90;;;;;;5027805;28;20049;-65
2024/01/09 03:08:32;;;;;;;21.63;10.68;;;-5.10;99.90;;;;;;5032850;28;20387;-65
2024/01/09 03:11:04;;;;;;;29.95;12.02;;;-5.10;99.90;;;;;;5029709;28;20441;-65
2024/01/09 03:13:31;;;;;;;24.00;11.10;;;-5.10;99.90;;;;;;5027393;28;20128;-65
2024/01/09 03:16:13;;;;;;;22.75;11.30;;;-5.00;99.90;;;;;;5024741;28;20080;-65
2024/01/09 03:18:45;;;;;;;23.92;12.13;;;-5.00;99.90;;;;;;5023261;28;20529;-65
2024/01/09 03:21:13;;;;;;;23.27;10.95;;;-5.00;99.90;;;;;;5021713;28;20044;-65
2024/01/09 03:23:45;;;;;;;21.38;11.15;;;-5.00;99.90;;;;;;5019304;28;20522;-65
2024/01/09 03:26:17;;;;;;;22.10;11.35;;;-4.90;99.90;;;;;;5017132;28;20050;-65
2024/01/09 03:28:49;;;;;;;21.75;11.18;;;-4.90;99.90;;;;;;5028752;28;20422;-65
2024/01/09 03:31:22;;;;;;;22.55;11.30;;;-5.00;99.90;;;;;;5023404;28;20045;-65
2024/01/09 03:33:54;;;;;;;21.40;11.40;;;-5.00;99.90;;;;;;5031006;28;20515;-65
2024/01/09 03:36:20;;;;;;;21.75;11.10;;;-5.00;99.90;;;;;;5029065;28;20037;-65
2024/01/09 03:38:53;;;;;;;17.52;10.68;;;-4.90;99.90;;;;;;5016721;28;20145;-65
2024/01/09 03:41:25;;;;;;;19.97;8.53;;;-5.00;99.90;;;;;;5018877;28;20124;-65
2024/01/09 03:43:57;;;;;;;25.80;11.32;;;-4.90;99.90;;;;;;5029277;28;20075;-65
2024/01/09 03:46:29;;;;;;;26.08;9.95;;;-4.90;99.90;;;;;;5020579;28;20046;-65
2024/01/09 03:49:01;;;;;;;22.02;10.55;;;-4.90;99.90;;;;;;5003250;28;20099;-65
2024/01/09 03:51:33;;;;;;;23.38;11.13;;;-4.90;99.90;;;;;;5037602;28;20104;-65
2024/01/09 03:54:05;;;;;;;23.10;11.57;;;-4.90;99.90;;;;;;5015630;28;20065;-65
2024/01/09 03:56:37;;;;;;;23.42;11.88;;;-4.90;99.90;;;;;;5029390;28;20049;-65
2024/01/09 03:59:09;;;;;;;25.70;11.73;;;-4.90;99.90;;;;;;5013605;28;20499;-67
2024/01/09 04:01:39;;;;;;;25.70;11.80;;;-4.80;99.90;;;;;;5019281;28;20026;-65
2024/01/09 04:04:11;;;;;;;21.95;12.10;;;-4.80;99.90;;;;;;5027528;28;20513;-65
2024/01/09 04:06:46;;;;;;;22.50;11.98;;;-4.80;99.90;;;;;;5019650;28;20033;-65
2024/01/09 04:09:12;;;;;;;23.02;12.05;;;-4.80;99.90;;;;;;5024577;28;20056;-65
2024/01/09 04:11:45;;;;;;;23.27;11.88;;;-4.80;99.90;;;;;;5022046;28;20527;-65
2024/01/09 04:14:17;;;;;;;22.63;9.93;;;-4.90;99.90;;;;;;5037609;28;20075;-65
2024/01/09 04:16:49;;;;;;;23.13;11.07;;;-4.80;99.90;;;;;;5019611;28;20048;-65
2024/01/09 04:19:21;;;;;;;24.63;11.43;;;-4.80;99.90;;;;;;5020896;28;20052;-65
2024/01/09 04:21:53;;;;;;;32.35;14.23;;;-4.80;99.90;;;;;;5018389;28;20040;-65
2024/01/09 04:24:25;;;;;;;22.58;12.32;;;-4.80;99.90;;;;;;5016063;28;20058;-65
2024/01/09 04:26:52;;;;;;;25.35;12.38;;;-4.80;99.90;;;;;;5030292;28;20036;-65
2024/01/09 04:29:18;;;;;;;28.25;12.82;;;-4.80;99.90;;;;;;5019655;28;20061;-65
2024/01/09 04:31:50;;;;;;;25.55;12.55;;;-4.80;99.90;;;;;;5019635;28;20041;-66
2024/01/09 04:34:17;;;;;;;26.20;12.93;;;-4.80;99.90;;;;;;5020712;28;20046;-65
2024/01/09 04:36:49;;;;;;;24.02;12.65;;;-4.80;99.90;;;;;;5023034;28;20057;-65
2024/01/09 04:39:16;;;;;;;28.15;13.10;;;-4.90;99.90;;;;;;5021867;28;20038;-65
2024/01/09 04:41:48;;;;;;;26.63;12.68;;;-4.90;99.90;;;;;;5020010;28;20045;-65
2024/01/09 04:44:20;;;;;;;23.58;11.27;;;-4.90;99.90;;;;;;5022626;28;20045;-65
2024/01/09 04:46:52;;;;;;;24.20;13.02;;;-4.90;99.90;;;;;;5024206;28;20045;-65
2024/01/09 04:49:24;;;;;;;27.65;12.88;;;-4.90;99.90;;;;;;5019895;28;20129;-65
2024/01/09 04:51:55;;;;;;;25.67;11.30;;;-4.90;99.90;;;;;;5036792;28;20045;-65
2024/01/09 04:54:27;;;;;;;25.63;13.52;;;-4.80;99.90;;;;;;5014594;28;20062;-65
2024/01/09 04:56:59;;;;;;;26.63;13.02;;;-4.90;99.90;;;;;;5017956;28;20050;-66
2024/01/09 04:59:26;;;;;;;28.50;13.00;;;-4.80;99.90;;;;;;5028081;28;20052;-65
2024/01/09 05:02:01;;;;;;;24.67;12.15;;;-4.90;99.90;;;;;;5019731;28;20046;-66
2024/01/09 05:04:33;;;;;;;24.15;12.10;;;-4.90;99.90;;;;;;5036134;28;20028;-66
2024/01/09 05:07:05;;;;;;;23.58;12.43;;;-4.90;99.90;;;;;;5034447;28;20046;-66
2024/01/09 05:09:37;;;;;;;26.25;12.38;;;-4.90;99.90;;;;;;5002758;28;20514;-65
2024/01/09 05:12:04;;;;;;;24.25;12.73;;;-4.90;99.90;;;;;;5025899;28;20042;-65
2024/01/09 05:14:36;;;;;;;26.30;13.85;;;-4.80;99.90;;;;;;5026260;28;20049;-66
2024/01/09 05:17:08;;;;;;;27.20;12.57;;;-4.80;99.90;;;;;;5024191;28;20046;-65
2024/01/09 05:19:40;;;;;;;28.13;14.82;;;-4.80;99.90;;;;;;5027203;28;20061;-66
2024/01/09 05:22:13;;;;;;;29.55;14.52;;;-4.80;99.90;;;;;;5025723;28;20048;-66
2024/01/09 05:24:45;;;;;;;25.07;12.43;;;-4.80;99.90;;;;;;5024658;28;20065;-65
2024/01/09 05:27:12;;;;;;;30.90;14.13;;;-4.80;99.90;;;;;;5019775;28;20046;-65
2024/01/09 05:29:44;;;;;;;27.75;13.18;;;-4.80;99.90;;;;;;5020706;28;20405;-65
2024/01/09 05:32:10;;;;;;;26.65;14.65;;;-4.70;99.90;;;;;;5010119;28;20510;-66
2024/01/09 05:34:37;;;;;;;24.85;12.50;;;-4.80;99.90;;;;;;5028588;28;20107;-65
2024/01/09 05:37:09;;;;;;;25.33;12.57;;;-4.70;99.90;;;;;;5026712;28;20064;-65
2024/01/09 05:39:45;;;;;;;27.77;14.32;;;-4.70;99.90;;;;;;5028418;28;20457;-66
2024/01/09 05:42:18;;;;;;;27.20;12.98;;;-4.70;99.90;;;;;;5022002;28;20049;-66
2024/01/09 05:44:50;;;;;;;27.05;13.00;;;-4.70;99.90;;;;;;5022994;28;20030;-65
2024/01/09 05:47:17;;;;;;;26.05;13.20;;;-4.70;99.90;;;;;;5040633;28;20037;-65
2024/01/09 05:49:50;;;;;;;22.25;12.27;;;-4.70;99.90;;;;;;5028572;28;20135;-65
2024/01/09 05:52:22;;;;;;;29.88;13.45;;;-4.70;99.90;;;;;;5017153;28;20849;-65
2024/01/09 05:54:54;;;;;;;31.13;13.43;;;-4.70;99.90;;;;;;5025989;28;20072;-65
2024/01/09 05:57:26;;;;;;;29.17;13.65;;;-4.70;99.90;;;;;;5035785;28;20052;-65
2024/01/09 05:59:58;;;;;;;27.48;13.40;;;-4.70;99.90;;;;;;5018921;28;20050;-65
2024/01/09 06:02:25;;;;;;;31.67;15.48;;;-4.80;99.90;;;;;;5024674;28;20037;-65
2024/01/09 06:04:57;;;;;;;29.25;15.13;;;-4.80;99.90;;;;;;5020078;28;20140;-65
2024/01/09 06:07:29;;;;;;;28.50;14.35;;;-4.80;99.90;;;;;;5026057;28;20046;-66
2024/01/09 06:09:56;;;;;;;31.58;15.32;;;-4.80;99.90;;;;;;5012109;28;20700;-65
2024/01/09 06:12:25;;;;;;;27.90;16.13;;;-4.90;99.90;;;;;;5028336;28;20037;-65
2024/01/09 06:14:57;;;;;;;27.60;14.27;;;-4.90;99.90;;;;;;5029621;28;20092;-66
2024/01/09 06:17:29;;;;;;;27.95;14.60;;;-4.90;99.90;;;;;;5021872;28;20037;-65
2024/01/09 06:20:01;;;;;;;28.77;13.68;;;-4.90;99.90;;;;;;5029354;28;20049;-65
2024/01/09 06:22:33;;;;;;;29.40;13.45;;;-4.90;99.90;;;;;;5029705;28;20111;-65
2024/01/09 06:25:05;;;;;;;27.02;13.30;;;-4.90;99.90;;;;;;5029568;28;20091;-65
2024/01/09 06:27:37;;;;;;;30.70;13.38;;;-4.90;99.90;;;;;;5031444;28;20534;-66
2024/01/09 06:30:09;;;;;;;28.05;14.30;;;-4.90;99.90;;;;;;5046678;28;20072;-66
2024/01/09 06:32:41;;;;;;;26.85;13.70;;;-5.00;99.90;;;;;;5029754;28;20146;-66
2024/01/09 06:35:08;;;;;;;26.95;13.63;;;-5.00;99.90;;;;;;5023239;28;20498;-66
2024/01/09 06:37:43;;;;;;;27.42;15.23;;;-5.00;99.90;;;;;;5024403;28;20041;-66
2024/01/09 06:40:10;;;;;;;25.27;12.18;;;-5.00;99.90;;;;;;5027460;28;20037;-66
2024/01/09 06:42:42;;;;;;;28.13;12.50;;;-5.00;99.90;;;;;;5029792;28;20042;-65
2024/01/09 06:45:09;;;;;;;36.88;16.45;;;-5.10;99.90;;;;;;5024426;28;20036;-65
2024/01/09 06:47:41;;;;;;;33.47;16.10;;;-5.10;99.90;;;;;;5030190;28;20041;-65
2024/01/09 06:50:13;;;;;;;30.42;16.98;;;-4.90;99.90;;;;;;5023405;28;20129;-65
2024/01/09 06:52:40;;;;;;;28.80;14.35;;;-4.90;99.90;;;;;;5043285;28;20037;-65
2024/01/09 06:55:07;;;;;;;32.50;15.35;;;-5.00;99.90;;;;;;5036570;28;20418;-65
2024/01/09 06:57:34;;;;;;;31.80;15.20;;;-5.00;99.90;;;;;;5029415;28;20120;-65
2024/01/09 07:00:01;;;;;;;25.80;12.95;;;-5.00;99.90;;;;;;5027200;28;20065;-65
2024/01/09 07:02:30;;;;;;;25.48;13.70;;;-5.00;99.90;;;;;;5025348;28;20124;-65
2024/01/09 07:04:57;;;;;;;25.65;12.00;;;-5.00;99.90;;;;;;5031965;28;20038;-65
2024/01/09 07:07:29;;;;;;;30.35;14.23;;;-5.00;99.90;;;;;;5029917;28;20038;-65
2024/01/09 07:09:56;;;;;;;28.10;14.00;;;-5.10;99.90;;;;;;5045329;28;20144;-65
2024/01/09 07:12:28;;;;;;;28.08;14.07;;;-5.10;99.90;;;;;;5040792;28;20095;-66
2024/01/09 07:15:01;;;;;;;27.65;13.48;;;-5.10;99.90;;;;;;5029916;28;20049;-65
2024/01/09 07:17:28;;;;;;;26.42;14.48;;;-5.10;99.90;;;;;;5023481;28;20077;-65
2024/01/09 07:19:59;;;;;;;25.43;12.27;;;-5.10;99.90;;;;;;5026576;28;20076;-65
2024/01/09 07:22:26;;;;;;;25.63;13.02;;;-5.10;99.90;;;;;;5043869;28;20379;-65
2024/01/09 07:24:58;;;;;;;29.57;13.93;;;-5.10;99.90;;;;;;5026236;28;20041;-66
2024/01/09 07:27:25;;;;;;;25.07;13.77;;;-5.10;99.90;;;;;;5020007;28;20051;-65
2024/01/09 07:29:52;;;;;;;28.73;13.17;;;-5.10;99.90;;;;;;5026187;28;20048;-65
2024/01/09 07:32:20;;;;;;;27.67;13.90;;;-5.10;99.90;;;;;;5023019;28;20045;-65
2024/01/09 07:34:52;;;;;;;;;;;-5.10;99.90;;;;;;5030893;28;20054;-65
2024/01/09 07:37:19;;;;;;;33.63;14.23;;;-5.00;99.90;;;;;;5029243;28;19920;-66
2024/01/09 07:39:51;;;;;;;26.60;13.95;;;-5.10;99.90;;;;;;5022431;28;20127;-65
2024/01/09 07:42:23;;;;;;;28.30;14.23;;;-5.10;99.90;;;;;;5023186;28;20128;-65
2024/01/09 07:44:50;;;;;;;30.17;15.00;;;-5.10;99.90;;;;;;5024490;28;20419;-65
2024/01/09 07:47:17;;;;;;;28.03;13.33;;;-5.10;99.90;;;;;;5012444;28;20046;-65
2024/01/09 07:49:43;;;;;;;23.53;13.00;;;-5.10;99.90;;;;;;5028550;28;20050;-65
2024/01/09 07:52:15;;;;;;;30.17;13.93;;;-5.10;99.90;;;;;;5014800;28;20069;-65
2024/01/09 07:54:47;;;;;;;24.33;11.57;;;-5.10;99.90;;;;;;5021407;28;20041;-65
2024/01/09 07:57:15;;;;;;;27.97;13.50;;;-5.10;99.90;;;;;;5037570;28;20099;-65
2024/01/09 07:59:47;;;;;;;24.53;12.80;;;-5.00;99.90;;;;;;5022146;28;20410;-65
2024/01/09 08:02:18;;;;;;;29.83;12.97;;;-5.00;99.90;;;;;;5028387;28;20042;-65
2024/01/09 08:04:50;;;;;;;24.77;13.37;;;-5.00;99.90;;;;;;5025941;28;20045;-65
2024/01/09 08:07:22;;;;;;;25.67;12.30;;;-5.00;99.90;;;;;;5029943;28;20048;-65
2024/01/09 08:09:54;;;;;;;30.17;14.03;;;-5.00;99.90;;;;;;5013026;28;20077;-65
2024/01/09 08:12:21;;;;;;;28.43;14.73;;;-5.00;99.90;;;;;;5021552;28;20128;-65
2024/01/09 08:14:53;;;;;;;25.13;14.00;;;-5.00;99.90;;;;;;5013000;28;20064;-70
2024/01/09 08:17:26;;;;;;;25.13;12.23;;;-5.00;99.90;;;;;;5032437;28;20409;-65
2024/01/09 08:19:58;;;;;;;25.33;13.33;;;-5.00;99.90;;;;;;5013378;28;20502;-65
2024/01/09 08:22:30;;;;;;;25.27;12.83;;;-5.00;99.90;;;;;;5013795;28;20049;-65
2024/01/09 08:24:59;;;;;;;25.27;13.03;;;-5.10;99.90;;;;;;5029565;28;20037;-65
2024/01/09 08:27:30;;;;;;;25.13;13.30;;;-5.00;99.90;;;;;;5020208;28;20080;-66
2024/01/09 08:30:03;;;;;;;29.13;13.97;;;-5.00;99.90;;;;;;5034802;28;20743;-65
2024/01/09 08:32:37;;;;;;;27.30;13.20;;;-5.00;99.90;;;;;;5026768;28;20083;-65
2024/01/09 08:35:09;;;;;;;28.75;13.63;;;-4.90;99.90;;;;;;5044066;28;20080;-65
2024/01/09 08:37:41;;;;;;;32.55;17.35;;;-4.90;99.90;;;;;;5025997;28;20076;-65
2024/01/09 08:40:14;;;;;;;32.63;16.03;;;-4.80;99.90;;;;;;5029267;28;20120;-65
2024/01/09 08:42:40;;;;;;;26.63;13.47;;;-4.90;99.90;;;;;;5017858;28;20046;-65
2024/01/09 08:45:17;;;;;;;26.00;13.45;;;-4.90;99.90;;;;;;5024298;28;20119;-65
2024/01/09 08:47:49;;;;;;;28.57;13.63;;;-4.90;99.90;;;;;;5038818;28;20577;-65
2024/01/09 08:50:21;;;;;;;25.73;13.00;;;-4.80;99.90;;;;;;5028107;28;20041;-65
2024/01/09 08:52:54;;;;;;;29.40;14.20;;;-4.80;99.90;;;;;;5028488;28;20164;-65
2024/01/09 08:55:21;;;;;;;30.52;13.80;;;-4.80;99.90;;;;;;5009424;28;20041;-65
2024/01/09 08:57:54;;;;;;;30.52;14.48;;;-4.80;99.90;;;;;;5024746;28;20061;-65
2024/01/09 09:00:26;;;;;;;29.83;13.70;;;-4.80;99.90;;;;;;5024019;28;20061;-65
2024/01/09 09:02:59;;;;;;;24.90;13.03;;;-4.80;99.90;;;;;;5028631;28;20048;-65
2024/01/09 09:05:31;;;;;;;30.08;14.98;;;-4.80;99.90;;;;;;5038746;28;20494;-65
2024/01/09 09:08:04;;;;;;;27.30;13.70;;;-4.80;99.90;;;;;;5020733;28;20048;-65
2024/01/09 09:10:31;;;;;;;29.83;13.70;;;-4.90;99.90;;;;;;5022120;28;20038;-65
2024/01/09 09:13:04;;;;;;;29.20;13.33;;;-4.80;99.90;;;;;;5026373;28;20033;-65
2024/01/09 09:15:36;;;;;;;27.30;13.70;;;-4.80;99.90;;;;;;5033735;28;20093;-68
2024/01/09 09:18:08;;;;;;;23.55;11.65;;;-4.80;99.90;;;;;;5040928;28;20041;-65
2024/01/09 09:20:40;;;;;;;27.02;13.32;;;-4.80;99.90;;;;;;5039978;28;20045;-65
2024/01/09 09:23:12;;;;;;;26.13;14.23;;;-4.80;99.90;;;;;;5012604;28;20068;-65
2024/01/09 09:25:39;;;;;;;28.93;13.60;;;-4.80;99.90;;;;;;5020570;28;20103;-65
2024/01/09 09:28:11;;;;;;;29.47;13.47;;;-4.70;99.90;;;;;;5021045;28;20045;-65
2024/01/09 09:30:43;;;;;;;26.70;13.15;;;-4.70;99.90;;;;;;5023662;28;20506;-65
2024/01/09 09:33:15;;;;;;;198.80;83.15;;;-4.70;99.90;;;;;;5024177;28;20049;-65
2024/01/09 09:35:42;;;;;;;48.53;24.50;;;-4.70;99.90;;;;;;5021863;28;20042;-65
2024/01/09 09:38:15;;;;;;;29.33;14.00;;;-4.70;99.90;;;;;;5020828;28;20132;-65
2024/01/09 09:40:47;;;;;;;24.88;13.73;;;-4.70;99.90;;;;;;5015157;28;20441;-65
2024/01/09 09:43:26;;;;;;;27.47;14.27;;;-4.60;99.90;;;;;;5025889;28;20045;-65
2024/01/09 09:46:01;;;;;;;27.77;13.65;;;-4.60;99.90;;;;;;5026083;28;20046;-65
2024/01/09 09:48:34;;;;;;;26.80;13.15;;;-4.60;99.90;;;;;;5028130;28;20045;-65
2024/01/09 09:51:01;;;;;;;27.08;13.73;;;-4.60;99.90;;;;;;5029726;28;20073;-65
2024/01/09 09:53:33;;;;;;;25.42;13.88;;;-4.60;99.90;;;;;;5045351;28;20061;-65
2024/01/09 09:56:05;;;;;;;27.95;13.18;;;-4.50;99.90;;;;;;5025051;28;20149;-65
2024/01/09 09:58:37;;;;;;;25.13;13.18;;;-4.50;99.90;;;;;;5024293;28;20037;-65
2024/01/09 10:01:11;;;;;;;27.02;13.35;;;-4.50;99.90;;;;;;5029193;28;20045;-65
2024/01/09 10:04:01;;;;;;;26.45;13.27;;;-4.40;99.90;;;;;;5027486;28;20045;-65
2024/01/09 10:06:29;;;;;;;25.77;13.38;;;-4.20;99.90;;;;;;5025307;28;20065;-65
2024/01/09 10:08:56;;;;;;;28.83;13.45;;;-4.20;99.90;;;;;;5018001;28;20037;-65
2024/01/09 10:11:29;;;;;;;26.80;13.00;;;-4.20;99.90;;;;;;5028598;28;20046;-65
2024/01/09 10:14:00;;;;;;;26.67;13.10;;;-4.20;99.90;;;;;;5035844;28;20111;-65
2024/01/09 10:16:53;;;;;;;23.75;13.32;;;-4.20;99.90;;;;;;5014362;28;20049;-65
2024/01/09 10:19:27;;;;;;;24.83;13.65;;;-4.10;99.90;;;;;;5043339;28;20137;-65
2024/01/09 10:21:58;;;;;;;33.35;12.88;;;-4.10;99.90;;;;;;5035307;28;20128;-65
2024/01/09 10:24:36;;;;;;;30.83;14.25;;;-4.00;99.90;;;;;;5037146;28;20049;-65
2024/01/09 10:27:03;;;;;;;30.92;14.52;;;-4.00;99.90;;;;;;5035616;28;20112;-64
2024/01/09 10:29:38;;;;;;;25.90;12.85;;;-4.00;99.90;;;;;;5021757;28;20048;-65
2024/01/09 10:32:14;;;;;;;26.08;13.43;;;-3.90;99.90;;;;;;5019090;28;20124;-65
2024/01/09 10:34:45;;;;;;;22.75;12.00;;;-3.90;99.90;;;;;;5027602;28;20044;-65
2024/01/09 10:37:18;;;;;;;30.77;14.20;;;-3.80;99.90;;;;;;5019635;28;20391;-65
2024/01/09 10:39:51;;;;;;;26.42;13.63;;;-3.80;99.90;;;;;;5022960;28;22051;-65
2024/01/09 10:42:23;;;;;;;27.40;13.33;;;-3.70;99.90;;;;;;5024486;28;20041;-65
2024/01/09 10:44:58;;;;;;;29.77;14.35;;;-3.70;99.90;;;;;;5038807;28;20579;-65
2024/01/09 10:47:33;;;;;;;27.05;14.00;;;-3.70;99.90;;;;;;5028211;28;20073;-65
2024/01/09 10:50:06;;;;;;;32.83;13.65;;;-3.70;99.90;;;;;;5025886;28;20054;-65
2024/01/09 10:52:38;;;;;;;;;;;-3.60;99.90;;;;;;5024661;28;20048;-65
2024/01/09 10:55:11;;;;;;;31.15;16.75;;;-3.60;99.90;;;;;;5020734;28;19952;-65
2024/01/09 10:57:45;;;;;;;20.45;12.02;;;-3.50;99.90;;;;;;5025923;28;20048;-65
2024/01/09 11:00:18;;;;;;;27.33;14.20;;;-3.60;99.90;;;;;;5023674;28;20108;-65
2024/01/09 11:02:50;;;;;;;22.48;11.48;;;-3.50;99.90;;;;;;5018357;28;20467;-65
2024/01/09 11:05:22;;;;;;;23.35;12.90;;;-3.50;99.90;;;;;;5018251;28;20037;-66
2024/01/09 11:07:57;;;;;;;25.38;13.38;;;-3.40;99.90;;;;;;5026123;28;20525;-65
2024/01/09 11:10:25;;;;;;;22.10;12.10;;;-3.50;99.90;;;;;;5040401;28;20073;-65
2024/01/09 11:12:53;;;;;;;27.83;13.80;;;-3.40;99.90;;;;;;5022436;28;20080;-65
2024/01/09 11:15:26;;;;;;;25.33;13.07;;;-3.40;99.90;;;;;;5039380;28;20502;-65
2024/01/09 11:18:02;;;;;;;26.03;12.47;;;-3.40;99.90;;;;;;5023688;28;20040;-65
2024/01/09 11:20:34;;;;;;;29.38;12.68;;;-3.40;99.90;;;;;;5044420;28;20306;-65
2024/01/09 11:23:06;;;;;;;23.73;12.90;;;-3.30;99.90;;;;;;5018007;28;20045;-65
2024/01/09 11:25:38;;;;;;;22.52;11.43;;;-3.30;99.90;;;;;;5043072;28;20037;-65
2024/01/09 11:28:36;;;;;;;21.73;11.75;;;-3.30;99.90;;;;;;5023960;28;20046;-65
2024/01/09 11:31:06;;;;;;;21.53;9.90;;;-3.20;99.90;;;;;;5019544;28;20472;-65
2024/01/09 11:33:41;;;;;;;24.27;11.88;;;-3.20;99.90;;;;;;5013369;28;20293;-65
2024/01/09 11:36:11;;;;;;;22.88;11.10;;;-3.10;99.90;;;;;;5021268;28;20037;-65
2024/01/09 11:38:43;;;;;;;25.15;13.25;;;-3.10;99.90;;;;;;5029294;28;20034;-65
2024/01/09 11:41:10;;;;;;;25.88;12.80;;;-3.00;99.90;;;;;;5026303;28;20076;-66
2024/01/09 11:44:02;;;;;;;24.83;14.20;;;-2.90;99.90;;;;;;5029220;28;20045;-65
2024/01/09 11:46:34;;;;;;;28.50;13.68;;;-2.90;99.90;;;;;;5042922;28;20068;-65
2024/01/09 11:49:07;;;;;;;31.55;14.45;;;-2.80;99.90;;;;;;5019924;28;20041;-65
2024/01/09 11:51:34;;;;;;;31.38;13.68;;;-2.70;99.90;;;;;;5024124;28;20101;-66
2024/01/09 11:54:02;;;;;;;30.50;14.80;;;-2.70;99.90;;;;;;5023915;28;20081;-65
2024/01/09 11:56:29;;;;;;;31.42;15.75;;;-2.60;99.90;;;;;;5023451;28;20060;-66
2024/01/09 11:59:01;;;;;;;37.63;17.92;;;-2.60;99.90;;;;;;5027268;28;20045;-66
2024/01/09 12:01:33;;;;;;;31.38;16.85;;;-2.50;99.90;;;;;;5024564;28;20037;-65
2024/01/09 12:04:06;;;;;;;43.78;22.20;;;-2.60;99.90;;;;;;5025579;28;20045;-65
2024/01/09 12:06:38;;;;;;;42.38;19.40;;;-2.50;99.90;;;;;;5021992;28;20034;-65
2024/01/09 12:09:05;;;;;;;28.17;15.85;;;-2.50;99.90;;;;;;5022634;28;20518;-65
2024/01/09 12:11:37;;;;;;;29.38;14.32;;;-2.50;99.90;;;;;;5034733;28;20581;-65
2024/01/09 12:14:09;;;;;;;24.55;12.82;;;-2.30;99.90;;;;;;5022249;28;20076;-65
2024/01/09 12:16:41;;;;;;;22.00;12.90;;;-2.30;99.90;;;;;;5020084;28;20136;-65
2024/01/09 12:19:16;;;;;;;25.48;12.57;;;-2.20;99.90;;;;;;5019700;28;20127;-65
2024/01/09 12:21:46;;;;;;;22.63;12.38;;;-2.10;99.90;;;;;;5025159;28;20041;-65
2024/01/09 12:24:18;;;;;;;21.20;12.23;;;-2.10;99.90;;;;;;5022345;28;20073;-66
2024/01/09 12:26:52;;;;;;;24.48;12.90;;;-2.00;99.90;;;;;;5025348;28;20518;-66
2024/01/09 12:29:24;;;;;;;27.50;13.57;;;-1.90;99.90;;;;;;5024727;28;20076;-66
2024/01/09 12:31:56;;;;;;;24.75;12.55;;;-1.90;99.90;;;;;;5027481;28;20083;-66
2024/01/09 12:34:29;;;;;;;28.13;12.55;;;-1.90;99.90;;;;;;5022732;28;20037;-65
2024/01/09 12:36:56;;;;;;;25.55;12.32;;;-1.80;99.90;;;;;;5036934;28;20041;-66
2024/01/09 12:39:28;;;;;;;24.08;12.38;;;-1.80;99.90;;;;;;5022950;28;20073;-66
2024/01/09 12:42:12;;;;;;;23.80;12.25;;;-1.70;99.90;;;;;;5023025;28;20050;-65
2024/01/09 12:44:44;;;;;;;24.70;13.13;;;-1.70;99.90;;;;;;5030224;28;20500;-66
2024/01/09 12:47:17;;;;;;;26.23;12.50;;;-1.60;99.90;;;;;;5020577;28;21412;-66
2024/01/09 12:49:50;;;;;;;26.35;12.93;;;-1.60;99.90;;;;;;5022520;28;20499;-66